Time;durP1;ratioP1;P1;durP2;ratioP2;P2;SDS_P1;SDS_P2;PMS_P1;PMS_P2;Temp;Humidity;BMP_temperature;BMP_pressure;BME280_temperature;BME280_humidity;BME280_pressure;Samples;Min_cycle;Max_cycle;Signal;HPM_P1;HPM_P2
2021/10/03 00:01:20;;;;;;;1.27;1.17;;;15.30;98.00;;;;;;5050280;28;20582;-72
2021/10/03 00:03:50;;;;;;;1.20;1.20;;;15.30;98.00;;;;;;5032629;28;20972;-71
2021/10/03 00:06:18;;;;;;;1.40;1.20;;;15.40;98.00;;;;;;5050387;28;20940;-70
2021/10/03 00:08:47;;;;;;;2.90;1.47;;;15.40;98.00;;;;;;5032911;28;20826;-71
2021/10/03 00:11:14;;;;;;;1.90;1.20;;;15.30;98.00;;;;;;5032690;28;20526;-72
2021/10/03 00:13:42;;;;;;;1.90;1.60;;;15.30;98.00;;;;;;5050742;28;20481;-71
2021/10/03 00:16:09;;;;;;;3.33;2.03;;;15.30;98.00;;;;;;5050548;28;20457;-71
2021/10/03 00:18:37;;;;;;;1.57;1.20;;;15.30;98.00;;;;;;5052139;28;20453;-72
2021/10/03 00:21:08;;;;;;;1.40;1.10;;;15.30;98.00;;;;;;5054015;28;20505;-72
2021/10/03 00:23:35;;;;;;;1.30;1.20;;;15.30;98.00;;;;;;5053852;28;20523;-71
2021/10/03 00:26:02;;;;;;;1.63;1.30;;;15.30;98.00;;;;;;5036069;28;21034;-72
2021/10/03 00:28:29;;;;;;;1.90;1.50;;;15.40;98.00;;;;;;5053806;28;20523;-71
2021/10/03 00:30:56;;;;;;;1.67;1.27;;;15.50;98.00;;;;;;5035856;28;20450;-71
2021/10/03 00:33:25;;;;;;;1.90;1.50;;;15.50;98.00;;;;;;5036374;28;20479;-71
2021/10/03 00:35:52;;;;;;;1.50;1.40;;;15.50;98.00;;;;;;5053749;28;20863;-71
2021/10/03 00:38:21;;;;;;;1.30;1.20;;;15.40;98.00;;;;;;5053355;28;20512;-71
2021/10/03 00:40:48;;;;;;;1.30;1.10;;;15.40;98.00;;;;;;5035771;28;20971;-71
2021/10/03 00:43:15;;;;;;;1.40;1.20;;;15.50;98.00;;;;;;5053455;28;21032;-71
2021/10/03 00:45:45;;;;;;;1.37;1.30;;;15.60;98.00;;;;;;5053698;28;20803;-72
2021/10/03 00:48:12;;;;;;;1.77;1.60;;;15.50;98.00;;;;;;5053140;28;20450;-71
2021/10/03 00:50:41;;;;;;;1.43;1.30;;;15.50;98.00;;;;;;5053330;28;20469;-71
2021/10/03 00:53:10;;;;;;;1.47;1.23;;;15.50;98.00;;;;;;5053297;28;20489;-70
2021/10/03 00:55:39;;;;;;;1.20;1.20;;;15.30;98.00;;;;;;5053331;28;20452;-71
2021/10/03 00:58:08;;;;;;;2.13;1.60;;;15.30;98.00;;;;;;5053143;28;20449;-71
2021/10/03 01:00:37;;;;;;;1.73;1.67;;;15.30;98.00;;;;;;5053515;28;20512;-72
2021/10/03 01:03:07;;;;;;;1.20;1.20;;;15.20;98.00;;;;;;5053036;28;20517;-71
2021/10/03 01:05:34;;;;;;;1.87;1.60;;;15.20;98.00;;;;;;5053109;28;20482;-70
2021/10/03 01:08:02;;;;;;;1.50;1.40;;;15.20;98.00;;;;;;5053095;28;20461;-71
2021/10/03 01:10:30;;;;;;;1.47;1.30;;;15.40;98.00;;;;;;5035321;28;20492;-72
2021/10/03 01:13:04;;;;;;;1.63;1.40;;;15.40;98.00;;;;;;5052938;28;20998;-71
2021/10/03 01:15:36;;;;;;;1.20;1.10;;;15.40;98.00;;;;;;5052955;28;20468;-71
2021/10/03 01:18:03;;;;;;;1.23;1.17;;;15.30;98.00;;;;;;5035902;28;20512;-71
2021/10/03 01:20:33;;;;;;;1.40;1.10;;;15.30;98.00;;;;;;5053188;28;20453;-71
2021/10/03 01:23:03;;;;;;;1.97;1.60;;;15.40;98.00;;;;;;5052793;28;20484;-71
2021/10/03 01:25:31;;;;;;;1.53;1.23;;;15.40;98.00;;;;;;5052785;28;20992;-71
2021/10/03 01:27:58;;;;;;;2.60;1.17;;;15.30;98.00;;;;;;5052789;28;20561;-72
2021/10/03 01:30:26;;;;;;;1.30;1.30;;;15.20;98.00;;;;;;5034988;28;20462;-71
2021/10/03 01:32:53;;;;;;;1.47;1.20;;;15.10;98.00;;;;;;5052659;28;20882;-72
2021/10/03 01:35:21;;;;;;;1.20;1.10;;;15.20;98.00;;;;;;5052809;28;20493;-71
2021/10/03 01:37:49;;;;;;;1.20;1.10;;;15.10;98.00;;;;;;5052662;28;20500;-71
2021/10/03 01:40:20;;;;;;;1.60;1.30;;;15.10;98.00;;;;;;5052504;28;20454;-71
2021/10/03 01:42:48;;;;;;;1.40;1.37;;;15.10;98.00;;;;;;5052296;28;20486;-71
2021/10/03 01:45:18;;;;;;;1.30;1.10;;;15.20;98.00;;;;;;5052430;28;20461;-71
2021/10/03 01:48:06;;;;;;;1.30;1.30;;;15.40;98.00;;;;;;5052267;28;20465;-71
2021/10/03 01:50:36;;;;;;;1.47;1.37;;;15.30;98.00;;;;;;5052315;28;20458;-71
2021/10/03 01:53:04;;;;;;;1.57;1.40;;;15.30;98.00;;;;;;5052195;28;20528;-71
2021/10/03 01:55:32;;;;;;;1.20;1.20;;;15.30;98.00;;;;;;5052331;28;20493;-71
2021/10/03 01:57:59;;;;;;;1.40;1.20;;;15.30;98.00;;;;;;5052044;28;20500;-71
2021/10/03 02:00:26;;;;;;;2.53;1.50;;;15.30;98.00;;;;;;5052099;28;20527;-71
2021/10/03 02:02:58;;;;;;;1.90;1.30;;;15.30;98.00;;;;;;5052045;28;21117;-71
2021/10/03 02:05:25;;;;;;;2.37;1.50;;;15.20;98.00;;;;;;5051912;28;20465;-71
2021/10/03 02:07:52;;;;;;;1.40;1.10;;;15.10;98.00;;;;;;5034073;28;20955;-72
2021/10/03 02:10:20;;;;;;;2.27;1.20;;;15.20;98.00;;;;;;5034409;28;20551;-70
2021/10/03 02:12:50;;;;;;;3.87;1.33;;;15.20;98.00;;;;;;5034222;28;20454;-71
2021/10/03 02:15:18;;;;;;;1.30;1.20;;;15.20;98.00;;;;;;5051857;28;20543;-72
2021/10/03 02:17:45;;;;;;;1.40;1.40;;;15.30;98.00;;;;;;5051820;28;20461;-71
2021/10/03 02:20:14;;;;;;;1.30;1.30;;;15.30;98.00;;;;;;5051722;28;20493;-71
2021/10/03 02:22:43;;;;;;;1.70;1.30;;;15.40;98.00;;;;;;5051474;28;20485;-71
2021/10/03 02:25:10;;;;;;;1.30;1.10;;;15.40;98.00;;;;;;5051521;28;20461;-71
2021/10/03 02:27:37;;;;;;;1.60;1.30;;;15.40;98.00;;;;;;5051423;28;20511;-72
2021/10/03 02:30:08;;;;;;;1.70;1.43;;;15.20;98.00;;;;;;5051655;28;20450;-71
2021/10/03 02:32:35;;;;;;;1.20;1.10;;;15.20;98.00;;;;;;5051535;28;20489;-71
2021/10/03 02:35:02;;;;;;;2.07;1.30;;;15.20;98.00;;;;;;5051411;28;20454;-72
2021/10/03 02:37:29;;;;;;;1.47;1.40;;;15.10;98.00;;;;;;5051384;28;20462;-71
2021/10/03 02:39:57;;;;;;;1.47;1.27;;;15.10;98.00;;;;;;5050679;28;20515;-71
2021/10/03 02:42:24;;;;;;;2.33;1.47;;;15.00;98.00;;;;;;5050927;28;20580;-71
2021/10/03 02:44:51;;;;;;;1.37;1.20;;;15.00;98.00;;;;;;5051340;28;20591;-71
2021/10/03 02:47:20;;;;;;;1.77;1.40;;;15.10;98.00;;;;;;5051170;28;20496;-71
2021/10/03 02:49:47;;;;;;;1.30;1.27;;;15.30;98.00;;;;;;5050701;28;20556;-70
2021/10/03 02:52:17;;;;;;;1.30;1.20;;;15.40;98.00;;;;;;5051189;28;20991;-71
2021/10/03 02:54:44;;;;;;;1.40;1.33;;;15.20;98.00;;;;;;5051052;28;20506;-71
2021/10/03 02:57:11;;;;;;;1.60;1.20;;;15.10;98.00;;;;;;5051442;28;20458;-70
2021/10/03 02:59:38;;;;;;;1.70;1.40;;;15.00;98.00;;;;;;5051265;28;20457;-71
2021/10/03 03:02:05;;;;;;;1.20;1.10;;;15.10;98.00;;;;;;5051092;28;20538;-71
2021/10/03 03:04:34;;;;;;;1.40;1.27;;;15.10;98.00;;;;;;5051009;28;20527;-72
2021/10/03 03:07:01;;;;;;;1.20;0.97;;;15.00;98.00;;;;;;5051027;28;20568;-71
2021/10/03 03:09:28;;;;;;;4.17;1.60;;;14.80;98.00;;;;;;5050827;28;20485;-71
2021/10/03 03:11:56;;;;;;;1.30;1.20;;;14.80;98.00;;;;;;5051044;28;20450;-71
2021/10/03 03:14:23;;;;;;;1.50;1.33;;;14.90;98.00;;;;;;5050803;28;20504;-71
2021/10/03 03:16:52;;;;;;;2.23;1.60;;;15.00;98.00;;;;;;5050932;28;20457;-71
2021/10/03 03:19:21;;;;;;;2.40;1.40;;;14.90;98.00;;;;;;5050681;28;20531;-71
2021/10/03 03:21:49;;;;;;;1.47;1.20;;;14.80;98.00;;;;;;5033111;28;20461;-70
2021/10/03 03:24:16;;;;;;;1.20;1.20;;;14.90;98.00;;;;;;5050488;28;20525;-72
2021/10/03 03:26:43;;;;;;;1.30;1.20;;;14.90;98.00;;;;;;5050712;28;20446;-70
2021/10/03 03:29:10;;;;;;;1.63;1.30;;;15.00;98.00;;;;;;5050474;28;20473;-71
2021/10/03 03:31:37;;;;;;;1.60;1.20;;;15.00;98.00;;;;;;5050752;28;20458;-71
2021/10/03 03:34:04;;;;;;;1.60;1.30;;;14.90;98.00;;;;;;5050461;28;20524;-71
2021/10/03 03:36:31;;;;;;;1.77;1.10;;;14.90;98.00;;;;;;5050712;28;20886;-71
2021/10/03 03:39:00;;;;;;;1.30;1.10;;;14.70;98.00;;;;;;5050804;28;20461;-71
2021/10/03 03:41:28;;;;;;;1.73;1.37;;;14.60;98.00;;;;;;5050653;28;20527;-71
2021/10/03 03:43:55;;;;;;;1.23;1.10;;;14.80;98.00;;;;;;5050489;28;20582;-71
2021/10/03 03:46:22;;;;;;;1.50;1.43;;;14.60;98.00;;;;;;5050576;28;20882;-71
2021/10/03 03:48:48;;;;;;;1.57;1.27;;;14.60;98.00;;;;;;5050432;28;20485;-70
2021/10/03 03:51:15;;;;;;;1.40;1.30;;;14.70;98.00;;;;;;5050568;28;20485;-71
2021/10/03 03:53:43;;;;;;;1.50;1.27;;;14.80;98.00;;;;;;5054220;28;20556;-71
2021/10/03 03:56:14;;;;;;;1.30;1.20;;;14.70;98.00;;;;;;5054659;28;20461;-71
2021/10/03 03:58:41;;;;;;;1.40;1.10;;;14.70;98.00;;;;;;5037081;28;20473;-71
2021/10/03 04:01:08;;;;;;;1.57;1.30;;;14.70;98.00;;;;;;5054634;28;21025;-71
2021/10/03 04:03:36;;;;;;;1.53;1.27;;;14.50;98.00;;;;;;5054512;28;20516;-70
2021/10/03 04:06:05;;;;;;;1.30;1.30;;;14.40;98.00;;;;;;5055123;28;20453;-72
2021/10/03 04:08:32;;;;;;;2.70;1.70;;;14.40;98.00;;;;;;5055043;28;20497;-71
2021/10/03 04:10:59;;;;;;;1.40;1.13;;;14.40;98.00;;;;;;5054724;28;20490;-71
2021/10/03 04:13:27;;;;;;;1.60;1.43;;;14.50;98.00;;;;;;5055204;28;20503;-71
2021/10/03 04:15:54;;;;;;;1.47;1.43;;;14.50;98.00;;;;;;5054468;28;20518;-70
2021/10/03 04:18:21;;;;;;;1.37;1.30;;;14.40;98.00;;;;;;5054090;28;21014;-70
2021/10/03 04:20:48;;;;;;;1.50;1.30;;;14.30;98.00;;;;;;5054380;28;20832;-70
2021/10/03 04:23:19;;;;;;;1.73;1.33;;;14.40;98.00;;;;;;5054160;28;20488;-70
2021/10/03 04:25:46;;;;;;;1.43;1.43;;;14.40;98.00;;;;;;5054026;28;20540;-71
2021/10/03 04:28:13;;;;;;;1.50;1.40;;;14.30;98.00;;;;;;5054168;28;20457;-70
2021/10/03 04:30:41;;;;;;;1.20;1.20;;;14.20;98.00;;;;;;5053991;28;20511;-70
2021/10/03 04:33:08;;;;;;;1.50;1.30;;;14.30;98.00;;;;;;5053651;28;20514;-71
2021/10/03 04:35:35;;;;;;;1.60;1.20;;;14.20;98.00;;;;;;5053743;28;20514;-71
2021/10/03 04:38:02;;;;;;;1.20;1.00;;;14.10;98.00;;;;;;5053802;28;20518;-71
2021/10/03 04:40:29;;;;;;;1.30;1.13;;;14.20;98.00;;;;;;5053794;28;20496;-70
2021/10/03 04:42:56;;;;;;;1.50;1.30;;;14.30;98.00;;;;;;5035889;28;20485;-70
2021/10/03 04:45:24;;;;;;;2.13;1.10;;;14.20;98.00;;;;;;5035964;28;20491;-71
2021/10/03 04:47:52;;;;;;;1.60;1.50;;;14.10;98.00;;;;;;5035749;28;20496;-71
2021/10/03 04:50:19;;;;;;;1.30;1.10;;;14.10;98.00;;;;;;5053437;28;20453;-71
2021/10/03 04:52:46;;;;;;;1.20;1.10;;;14.10;98.00;;;;;;5035568;28;20450;-70
2021/10/03 04:55:14;;;;;;;1.50;1.27;;;14.20;98.00;;;;;;5053317;28;20951;-70
2021/10/03 04:57:41;;;;;;;1.20;1.10;;;14.20;98.00;;;;;;5053440;28;20460;-71
2021/10/03 05:00:10;;;;;;;1.60;1.37;;;14.30;98.00;;;;;;5035397;28;20456;-71
2021/10/03 05:02:37;;;;;;;1.20;1.10;;;14.30;98.00;;;;;;5053200;28;21038;-70
2021/10/03 05:05:07;;;;;;;1.23;1.20;;;14.20;98.00;;;;;;5052429;28;20969;-71
2021/10/03 05:07:35;;;;;;;1.40;1.30;;;14.20;98.00;;;;;;5053239;28;20460;-70
2021/10/03 05:10:03;;;;;;;1.20;1.20;;;14.20;98.00;;;;;;5035480;28;20457;-71
2021/10/03 05:12:32;;;;;;;1.53;1.27;;;14.00;98.00;;;;;;5053018;28;20461;-72
2021/10/03 05:14:59;;;;;;;1.43;1.20;;;14.00;98.00;;;;;;5052858;28;20958;-71
2021/10/03 05:17:26;;;;;;;1.67;1.20;;;14.10;98.00;;;;;;5052892;28;20898;-72
2021/10/03 05:19:53;;;;;;;1.30;1.30;;;14.10;98.00;;;;;;5052713;28;20461;-70
2021/10/03 05:22:22;;;;;;;1.73;1.33;;;14.10;98.00;;;;;;5052753;28;20959;-70
2021/10/03 05:24:49;;;;;;;1.30;1.30;;;14.00;98.00;;;;;;5052625;28;20531;-70
2021/10/03 05:27:16;;;;;;;2.10;1.50;;;14.10;98.00;;;;;;5053075;28;20487;-72
2021/10/03 05:29:43;;;;;;;1.80;1.33;;;14.10;98.00;;;;;;5035144;28;20487;-72
2021/10/03 05:32:10;;;;;;;1.40;1.30;;;14.20;98.00;;;;;;5035029;28;20498;-72
2021/10/03 05:34:37;;;;;;;1.67;1.33;;;14.20;98.00;;;;;;5052256;28;20449;-72
2021/10/03 05:37:05;;;;;;;1.20;1.10;;;14.20;98.00;;;;;;5035192;28;20477;-73
2021/10/03 05:39:33;;;;;;;1.30;1.07;;;14.20;98.00;;;;;;5034955;28;20704;-72
2021/10/03 05:42:00;;;;;;;1.83;1.60;;;14.20;98.00;;;;;;5052909;28;20570;-73
2021/10/03 05:44:27;;;;;;;3.00;1.10;;;14.20;98.00;;;;;;5052586;28;20519;-72
2021/10/03 05:46:54;;;;;;;1.30;1.20;;;14.20;98.00;;;;;;5052464;28;20547;-72
2021/10/03 05:49:21;;;;;;;1.37;1.13;;;14.20;98.00;;;;;;5052422;28;20488;-72
2021/10/03 05:51:49;;;;;;;1.30;1.20;;;14.20;98.00;;;;;;5052716;28;20828;-73
2021/10/03 05:54:17;;;;;;;2.23;1.70;;;14.30;98.00;;;;;;5052323;28;20456;-73
2021/10/03 05:56:46;;;;;;;1.40;1.13;;;14.20;98.00;;;;;;5052328;28;20511;-72
2021/10/03 05:59:13;;;;;;;1.30;1.30;;;14.30;98.00;;;;;;5052252;28;20464;-72
2021/10/03 06:01:40;;;;;;;1.50;1.10;;;14.20;98.00;;;;;;5052101;28;20548;-70
2021/10/03 06:04:08;;;;;;;1.53;1.20;;;14.30;98.00;;;;;;5051583;28;20492;-70
2021/10/03 06:06:35;;;;;;;1.30;1.20;;;14.40;98.00;;;;;;5052056;28;20519;-70
2021/10/03 06:09:02;;;;;;;1.30;1.20;;;14.50;98.00;;;;;;5051961;28;20499;-72
2021/10/03 06:11:30;;;;;;;1.30;1.13;;;14.40;98.00;;;;;;5051828;28;20517;-73
2021/10/03 06:13:58;;;;;;;1.30;1.20;;;14.40;98.00;;;;;;5051753;28;20468;-73
2021/10/03 06:16:25;;;;;;;1.20;1.10;;;14.50;98.00;;;;;;5050842;28;20455;-72
2021/10/03 06:18:53;;;;;;;1.30;1.27;;;14.60;98.00;;;;;;5051878;28;20458;-70
2021/10/03 06:21:21;;;;;;;1.20;1.00;;;14.80;98.00;;;;;;5051894;28;20463;-72
2021/10/03 06:23:48;;;;;;;1.43;1.00;;;14.80;98.00;;;;;;5051688;28;20854;-71
2021/10/03 06:26:16;;;;;;;1.20;1.00;;;15.00;98.00;;;;;;5051604;28;20500;-71
2021/10/03 06:28:43;;;;;;;1.63;1.53;;;15.00;98.00;;;;;;5051494;28;20486;-73
2021/10/03 06:31:12;;;;;;;1.97;1.40;;;15.10;98.00;;;;;;5051512;28;20461;-72
2021/10/03 06:33:40;;;;;;;1.30;1.10;;;15.20;98.00;;;;;;5051370;28;20481;-72
2021/10/03 06:36:07;;;;;;;1.40;1.37;;;15.10;98.00;;;;;;5051500;28;21037;-73
2021/10/03 06:38:35;;;;;;;1.90;1.30;;;15.10;98.00;;;;;;5051495;28;20477;-72
2021/10/03 06:41:02;;;;;;;1.30;1.20;;;15.20;98.00;;;;;;5051420;28;20464;-72
2021/10/03 06:43:33;;;;;;;2.27;1.60;;;15.10;98.00;;;;;;5051317;28;20582;-72
2021/10/03 06:46:00;;;;;;;1.20;1.10;;;15.10;98.00;;;;;;5034089;28;20468;-73
2021/10/03 06:48:28;;;;;;;1.20;1.13;;;15.10;98.00;;;;;;5051118;28;20537;-72
2021/10/03 06:50:55;;;;;;;1.20;1.07;;;15.30;98.00;;;;;;5051307;28;20587;-72
2021/10/03 06:53:27;;;;;;;1.20;1.13;;;15.40;98.00;;;;;;5051199;28;21195;-71
2021/10/03 06:55:54;;;;;;;1.43;1.33;;;15.40;98.00;;;;;;5033419;28;20485;-71
2021/10/03 06:58:22;;;;;;;1.67;1.53;;;15.50;98.00;;;;;;5051155;28;20469;-71
2021/10/03 07:00:49;;;;;;;1.20;1.10;;;15.50;98.00;;;;;;5051315;28;20485;-72
2021/10/03 07:03:16;;;;;;;1.53;1.20;;;15.60;98.00;;;;;;5051153;28;20882;-70
2021/10/03 07:05:44;;;;;;;2.10;1.77;;;15.80;98.00;;;;;;5051484;28;20998;-71
2021/10/03 07:08:12;;;;;;;1.40;1.40;;;15.90;98.00;;;;;;5050350;28;20519;-70
2021/10/03 07:10:39;;;;;;;2.13;1.40;;;16.00;98.00;;;;;;5050999;28;20530;-71
2021/10/03 07:13:06;;;;;;;1.40;1.30;;;16.20;98.00;;;;;;5033381;28;20523;-71
2021/10/03 07:15:33;;;;;;;1.60;1.30;;;16.40;98.00;;;;;;5051017;28;20454;-71
2021/10/03 07:18:01;;;;;;;1.40;1.30;;;16.60;98.00;;;;;;5050806;28;20461;-72
2021/10/03 07:20:28;;;;;;;3.10;1.30;;;16.80;98.00;;;;;;5050600;28;20500;-72
2021/10/03 07:22:56;;;;;;;1.40;1.40;;;17.00;98.00;;;;;;5050831;28;20963;-72
2021/10/03 07:25:24;;;;;;;1.40;1.30;;;17.20;98.00;;;;;;5050422;28;20497;-72
2021/10/03 07:27:51;;;;;;;2.03;1.33;;;17.30;98.00;;;;;;5050749;28;20458;-73
2021/10/03 07:30:19;;;;;;;2.87;1.70;;;17.40;98.00;;;;;;5050657;28;20462;-74
2021/10/03 07:32:46;;;;;;;3.60;1.83;;;17.40;98.00;;;;;;5050634;28;20480;-72
2021/10/03 07:35:13;;;;;;;1.83;1.57;;;17.50;98.00;;;;;;5050469;28;20488;-72
2021/10/03 07:37:40;;;;;;;1.57;1.30;;;17.70;98.00;;;;;;5050884;28;20532;-72
2021/10/03 07:40:10;;;;;;;1.20;1.03;;;17.90;98.00;;;;;;5032898;28;20457;-73
2021/10/03 07:42:37;;;;;;;1.20;1.03;;;18.20;98.00;;;;;;5050639;28;20995;-72
2021/10/03 07:45:05;;;;;;;1.97;1.30;;;18.40;98.00;;;;;;5032733;28;20531;-72
2021/10/03 07:47:32;;;;;;;1.90;1.70;;;18.50;98.00;;;;;;5050552;28;20454;-72
2021/10/03 07:50:00;;;;;;;1.40;1.10;;;18.50;98.00;;;;;;5050439;28;20491;-72
2021/10/03 07:52:27;;;;;;;1.37;1.13;;;18.40;98.00;;;;;;5050459;28;20516;-72
2021/10/03 07:54:54;;;;;;;1.60;1.30;;;18.40;98.00;;;;;;5050502;28;20960;-72
2021/10/03 07:57:23;;;;;;;2.03;1.30;;;18.40;98.00;;;;;;5050437;28;21018;-72
2021/10/03 07:59:50;;;;;;;1.90;1.43;;;18.30;98.00;;;;;;5050424;28;20831;-72
2021/10/03 08:02:18;;;;;;;1.70;1.33;;;18.20;98.00;;;;;;5052140;28;20461;-71
2021/10/03 08:04:46;;;;;;;1.30;1.30;;;18.20;98.00;;;;;;5052344;28;20485;-68
2021/10/03 08:07:13;;;;;;;1.70;1.43;;;18.10;98.00;;;;;;5049164;28;20482;-68
2021/10/03 08:09:42;;;;;;;1.53;1.40;;;18.10;98.00;;;;;;5049316;28;20458;-68
2021/10/03 08:12:09;;;;;;;1.80;1.20;;;18.10;98.00;;;;;;5050166;28;20450;-68
2021/10/03 08:14:37;;;;;;;2.00;1.60;;;18.20;98.00;;;;;;5052653;28;20460;-69
2021/10/03 08:17:05;;;;;;;2.10;1.50;;;18.20;98.00;;;;;;5053489;28;20503;-68
2021/10/03 08:19:33;;;;;;;2.27;1.70;;;18.20;98.00;;;;;;5052541;28;20506;-68
2021/10/03 08:22:01;;;;;;;2.83;1.93;;;18.30;98.00;;;;;;5057565;28;20456;-69
2021/10/03 08:24:28;;;;;;;1.90;1.60;;;18.30;98.00;;;;;;5066097;28;20514;-70
2021/10/03 08:26:55;;;;;;;1.67;1.50;;;18.30;98.00;;;;;;5064604;28;20449;-68
2021/10/03 08:29:22;;;;;;;1.60;1.37;;;18.30;98.00;;;;;;5060317;28;20514;-67
2021/10/03 08:31:51;;;;;;;2.40;1.70;;;18.30;98.00;;;;;;5063678;28;20515;-67
2021/10/03 08:34:18;;;;;;;1.83;1.37;;;18.30;98.00;;;;;;5060150;28;20489;-68
2021/10/03 08:36:45;;;;;;;1.40;1.30;;;18.30;98.00;;;;;;5067039;28;20461;-70
2021/10/03 08:39:12;;;;;;;1.40;1.30;;;18.30;98.00;;;;;;5049072;28;20509;-69
2021/10/03 08:41:40;;;;;;;1.40;1.13;;;18.40;98.00;;;;;;5067430;28;20469;-70
2021/10/03 08:44:09;;;;;;;1.40;1.40;;;18.50;98.00;;;;;;5052398;28;20552;-71
2021/10/03 08:46:37;;;;;;;2.13;1.60;;;18.40;98.00;;;;;;5035399;28;20615;-69
2021/10/03 08:49:06;;;;;;;1.30;1.30;;;18.50;98.00;;;;;;5061550;28;20510;-71
2021/10/03 08:51:33;;;;;;;1.67;1.40;;;18.40;98.00;;;;;;5055119;28;20494;-69
2021/10/03 08:54:00;;;;;;;1.60;1.43;;;18.40;98.00;;;;;;5060137;28;20530;-68
2021/10/03 08:56:28;;;;;;;1.83;1.50;;;18.40;98.00;;;;;;5058932;28;20516;-70
2021/10/03 08:58:55;;;;;;;1.20;1.10;;;18.40;98.00;;;;;;5054700;28;20980;-72
2021/10/03 09:01:23;;;;;;;1.30;1.30;;;18.60;98.00;;;;;;5062564;28;20511;-71
2021/10/03 09:03:52;;;;;;;1.50;1.50;;;18.60;98.00;;;;;;5060354;28;20464;-68
2021/10/03 09:06:22;;;;;;;1.60;1.60;;;18.60;98.00;;;;;;5066685;28;20531;-67
2021/10/03 09:08:52;;;;;;;1.40;1.27;;;18.80;98.00;;;;;;5052889;28;21086;-66
2021/10/03 09:11:19;;;;;;;1.70;1.50;;;18.80;98.00;;;;;;5062297;28;20536;-72
2021/10/03 09:13:52;;;;;;;2.63;1.80;;;18.80;98.00;;;;;;5067914;28;20536;-68
2021/10/03 09:16:23;;;;;;;2.90;1.70;;;18.80;98.00;;;;;;5057398;28;20474;-68
2021/10/03 09:18:52;;;;;;;1.73;1.43;;;18.90;98.00;;;;;;5052553;28;20458;-69
2021/10/03 09:21:41;;;;;;;1.50;1.20;;;18.90;98.00;;;;;;5055228;28;20468;-69
2021/10/03 09:24:12;;;;;;;1.30;1.17;;;19.00;98.00;;;;;;5059157;28;20465;-69
2021/10/03 09:26:51;;;;;;;1.97;1.70;;;19.10;98.00;;;;;;5053997;28;20489;-69
2021/10/03 09:29:24;;;;;;;1.30;1.20;;;19.10;98.00;;;;;;5059663;28;20940;-73
2021/10/03 09:32:12;;;;;;;1.60;1.50;;;19.10;98.00;;;;;;5052254;28;20516;-70
2021/10/03 09:34:40;;;;;;;1.30;1.20;;;19.10;98.00;;;;;;5054402;28;20515;-69
2021/10/03 09:37:24;;;;;;;1.67;1.60;;;19.10;98.00;;;;;;5059275;28;20466;-69
2021/10/03 09:39:51;;;;;;;2.43;1.27;;;19.10;98.00;;;;;;5051925;28;20450;-70
2021/10/03 09:42:20;;;;;;;1.53;1.40;;;19.10;98.00;;;;;;5049457;28;20465;-69
2021/10/03 09:45:08;;;;;;;1.60;1.40;;;19.10;98.00;;;;;;5054575;28;20516;-70
2021/10/03 09:47:35;;;;;;;2.03;1.60;;;19.20;98.00;;;;;;5046876;28;20547;-69
2021/10/03 09:50:03;;;;;;;1.87;1.80;;;19.10;98.00;;;;;;5030242;28;20469;-69
2021/10/03 09:52:33;;;;;;;1.57;1.30;;;19.20;98.00;;;;;;5053983;28;20515;-69
2021/10/03 09:55:03;;;;;;;1.23;1.17;;;19.20;98.00;;;;;;5051528;28;20477;-68
2021/10/03 09:57:30;;;;;;;1.33;1.30;;;19.20;98.00;;;;;;5046851;28;20532;-70
2021/10/03 09:59:58;;;;;;;1.93;1.60;;;19.20;98.00;;;;;;5052775;28;20558;-69
2021/10/03 10:02:27;;;;;;;1.97;1.30;;;19.30;98.00;;;;;;5050586;28;20465;-69
2021/10/03 10:04:54;;;;;;;1.57;1.40;;;19.30;98.00;;;;;;5052078;28;20876;-69
2021/10/03 10:07:22;;;;;;;1.87;1.50;;;19.40;98.00;;;;;;5045206;28;20551;-68
2021/10/03 10:09:51;;;;;;;1.30;1.30;;;19.40;98.00;;;;;;5051956;28;20546;-69
2021/10/03 10:12:22;;;;;;;1.40;1.20;;;19.40;98.00;;;;;;5050552;28;20492;-70
2021/10/03 10:14:57;;;;;;;2.80;1.73;;;19.40;98.00;;;;;;5046076;28;21022;-69
2021/10/03 10:17:30;;;;;;;1.53;1.40;;;19.40;98.00;;;;;;5044709;28;20472;-69
2021/10/03 10:19:58;;;;;;;1.67;1.47;;;19.40;98.00;;;;;;5046647;28;20454;-70
2021/10/03 10:22:35;;;;;;;2.17;1.40;;;19.40;98.00;;;;;;5048438;28;21018;-73
2021/10/03 10:25:18;;;;;;;1.40;1.40;;;19.50;98.00;;;;;;5049539;28;20588;-72
2021/10/03 10:28:04;;;;;;;2.27;1.60;;;19.50;98.00;;;;;;5048464;28;20551;-71
2021/10/03 10:30:31;;;;;;;2.03;1.40;;;19.50;98.00;;;;;;5047883;28;20469;-70
2021/10/03 10:33:05;;;;;;;1.83;1.30;;;19.50;98.00;;;;;;5046560;28;21165;-70
2021/10/03 10:35:33;;;;;;;1.77;1.40;;;19.50;98.00;;;;;;5026866;28;20464;-70
2021/10/03 10:38:20;;;;;;;3.30;1.73;;;19.60;98.00;;;;;;5045845;28;20458;-71
2021/10/03 10:40:51;;;;;;;1.60;1.20;;;19.50;98.00;;;;;;5046561;28;20453;-71
2021/10/03 10:43:45;;;;;;;1.50;1.20;;;19.50;98.00;;;;;;5049989;28;20545;-70
2021/10/03 10:46:49;;;;;;;1.70;1.40;;;19.50;98.00;;;;;;5042284;28;20494;-71
2021/10/03 10:49:27;;;;;;;2.63;1.60;;;19.50;98.00;;;;;;5045020;28;20467;-73
2021/10/03 10:52:27;;;;;;;1.60;1.37;;;19.50;98.00;;;;;;5050890;28;20466;-71
2021/10/03 10:55:27;;;;;;;1.50;1.20;;;19.50;98.00;;;;;;5046340;28;20458;-71
2021/10/03 10:58:22;;;;;;;2.00;1.30;;;19.50;98.00;;;;;;4999178;28;20458;-71
2021/10/03 11:01:18;;;;;;;1.30;1.30;;;19.60;98.00;;;;;;5043961;28;20466;-70
2021/10/03 11:04:06;;;;;;;2.17;1.50;;;19.70;98.00;;;;;;5045516;28;20514;-70
2021/10/03 11:07:04;;;;;;;1.80;1.30;;;19.70;98.00;;;;;;5043704;28;20574;-71
2021/10/03 11:10:02;;;;;;;3.93;1.87;;;19.80;98.00;;;;;;5051684;28;20455;-70
2021/10/03 11:12:34;;;;;;;1.30;1.30;;;19.80;98.00;;;;;;5041418;28;20458;-70
2021/10/03 11:15:21;;;;;;;1.83;1.50;;;19.90;98.00;;;;;;5044936;28;20881;-70
2021/10/03 11:17:48;;;;;;;2.20;1.50;;;19.90;98.00;;;;;;5044092;28;20472;-70
2021/10/03 11:20:16;;;;;;;1.70;1.40;;;20.00;98.00;;;;;;5049532;28;20458;-71
2021/10/03 11:22:45;;;;;;;1.30;1.20;;;20.00;98.00;;;;;;5044922;28;20559;-71
2021/10/03 11:25:19;;;;;;;1.60;1.40;;;20.10;98.00;;;;;;5045605;28;20545;-72
2021/10/03 11:27:56;;;;;;;1.77;1.40;;;20.10;98.00;;;;;;5059339;28;20481;-70
2021/10/03 11:30:23;;;;;;;1.40;1.30;;;20.20;98.00;;;;;;5069773;28;20475;-70
2021/10/03 11:32:51;;;;;;;1.27;1.10;;;20.20;98.00;;;;;;5058699;28;20481;-71
2021/10/03 11:35:18;;;;;;;1.57;1.33;;;20.40;98.00;;;;;;5050401;28;20469;-71
2021/10/03 11:37:48;;;;;;;1.40;1.30;;;20.50;98.00;;;;;;5058219;28;20453;-71
2021/10/03 11:40:20;;;;;;;1.73;1.47;;;20.50;98.00;;;;;;5049752;28;20960;-72
2021/10/03 11:42:49;;;;;;;1.80;1.70;;;20.40;98.00;;;;;;5066514;28;20488;-71
2021/10/03 11:45:20;;;;;;;2.87;1.97;;;20.40;98.00;;;;;;5058529;28;21089;-71
2021/10/03 11:47:51;;;;;;;1.40;1.20;;;20.30;98.00;;;;;;5049345;28;20510;-72
2021/10/03 11:50:24;;;;;;;1.80;1.43;;;20.30;98.00;;;;;;5063091;28;20503;-71
2021/10/03 11:52:53;;;;;;;1.47;1.20;;;20.20;98.00;;;;;;5049038;28;20557;-72
2021/10/03 11:55:33;;;;;;;1.30;1.30;;;20.20;98.00;;;;;;5057925;28;20454;-72
2021/10/03 11:58:04;;;;;;;2.60;1.80;;;20.20;98.00;;;;;;5053923;28;20497;-72
2021/10/03 12:00:32;;;;;;;2.13;1.47;;;20.20;98.00;;;;;;5066700;28;20495;-72
2021/10/03 12:03:07;;;;;;;1.70;1.20;;;20.20;98.00;;;;;;5062615;28;20582;-72
2021/10/03 12:05:34;;;;;;;1.67;1.40;;;20.10;98.00;;;;;;5057955;28;20500;-72
2021/10/03 12:08:07;;;;;;;1.40;1.30;;;20.00;98.00;;;;;;5063366;28;20497;-71
2021/10/03 12:10:44;;;;;;;1.20;1.10;;;20.00;98.00;;;;;;5061218;28;20460;-71
2021/10/03 12:13:21;;;;;;;1.40;1.20;;;20.10;98.00;;;;;;5059756;28;20461;-71
2021/10/03 12:15:50;;;;;;;1.70;1.60;;;20.10;98.00;;;;;;5065489;28;20448;-71
2021/10/03 12:18:38;;;;;;;1.30;1.20;;;20.10;98.00;;;;;;5069270;28;20534;-72
2021/10/03 12:21:07;;;;;;;2.53;1.53;;;20.10;98.00;;;;;;5060670;28;20522;-72
2021/10/03 12:23:53;;;;;;;1.77;1.30;;;20.20;98.00;;;;;;5062656;28;20485;-71
2021/10/03 12:26:29;;;;;;;1.70;1.30;;;20.20;98.00;;;;;;5070044;28;20570;-71
2021/10/03 12:28:59;;;;;;;1.70;1.33;;;20.30;98.00;;;;;;5067965;28;20944;-71
2021/10/03 12:31:38;;;;;;;1.30;1.13;;;20.20;98.00;;;;;;5052961;28;20875;-72
2021/10/03 12:34:06;;;;;;;1.33;1.30;;;20.20;98.00;;;;;;5061176;28;20469;-71
2021/10/03 12:36:36;;;;;;;1.60;1.40;;;20.20;98.00;;;;;;5065283;28;20948;-71
2021/10/03 12:39:03;;;;;;;1.47;1.40;;;20.20;98.00;;;;;;5070393;28;20877;-71
2021/10/03 12:41:31;;;;;;;2.10;1.77;;;20.10;98.00;;;;;;5065834;28;20523;-70
2021/10/03 12:43:58;;;;;;;2.00;1.67;;;20.20;98.00;;;;;;5062062;28;20462;-72
2021/10/03 12:46:26;;;;;;;1.20;1.20;;;20.30;98.00;;;;;;5056392;28;20943;-70
2021/10/03 12:48:54;;;;;;;1.20;1.10;;;20.40;98.00;;;;;;5057610;28;20507;-71
2021/10/03 12:51:22;;;;;;;1.30;1.30;;;20.50;98.00;;;;;;5053322;28;20524;-71
2021/10/03 12:53:49;;;;;;;1.77;1.40;;;20.50;98.00;;;;;;5066325;28;20522;-71
2021/10/03 12:56:16;;;;;;;1.77;1.70;;;20.50;98.00;;;;;;5073640;28;20457;-70
2021/10/03 12:58:44;;;;;;;1.67;1.50;;;20.50;98.00;;;;;;5073047;28;20488;-71
2021/10/03 13:01:14;;;;;;;1.60;1.40;;;20.50;98.00;;;;;;5073458;28;20510;-70